Oceanside, Washington
Current Conditions -  °F | °C
As of 12:55 PM on Monday 24 Nov 2014 (Local Time) from KAST Reporting Station
Overcast Overcast  
Wind Chill: 54°   Ceiling: 9000
Heat Index: 54°   Visibility: 10mi
Dew Point: 45°   Wind: 7mph
Humidity: 72%   Direction: 200°SSW
Pressure: 30.25"   Gusts: NA
Location:  46.3832°N, 124.042°W
Report Text: KAST 242055Z AUTO 20006KT 10SM OVC090 12/07 A3025 RMK AO2 SLP243 T01220072 58024
Loading
Personal Weather Stations






























Interactive Weather Map New forecast layout! Learn more

10-Day Weather Forecast

Advertisements
Track Severe Weather on mobile